sensor_id;sensor_type;location;lat;lon;timestamp;temperature;humidity
73777;DHT22;62088;50.240;2.696;2022-12-24T00:01:03;10.40;85.20
73777;DHT22;62088;50.240;2.696;2022-12-24T00:03:31;10.40;85.20
73777;DHT22;62088;50.240;2.696;2022-12-24T00:06:02;10.40;85.20
73777;DHT22;62088;50.240;2.696;2022-12-24T00:08:29;10.40;85.30
73777;DHT22;62088;50.240;2.696;2022-12-24T00:10:56;10.40;85.30
73777;DHT22;62088;50.240;2.696;2022-12-24T00:13:23;10.40;85.30
73777;DHT22;62088;50.240;2.696;2022-12-24T00:15:50;10.40;85.30
73777;DHT22;62088;50.240;2.696;2022-12-24T00:18:17;10.40;85.40
73777;DHT22;62088;50.240;2.696;2022-12-24T00:20:47;10.40;85.40
73777;DHT22;62088;50.240;2.696;2022-12-24T00:23:15;10.40;85.30
73777;DHT22;62088;50.240;2.696;2022-12-24T00:25:43;10.40;85.30
73777;DHT22;62088;50.240;2.696;2022-12-24T00:28:10;10.50;85.30
73777;DHT22;62088;50.240;2.696;2022-12-24T00:30:38;10.40;85.30
73777;DHT22;62088;50.240;2.696;2022-12-24T00:33:06;10.40;85.20
73777;DHT22;62088;50.240;2.696;2022-12-24T00:35:34;10.50;85.20
73777;DHT22;62088;50.240;2.696;2022-12-24T00:38:01;10.40;85.20
73777;DHT22;62088;50.240;2.696;2022-12-24T00:40:30;10.50;85.20
73777;DHT22;62088;50.240;2.696;2022-12-24T00:42:57;10.40;85.20
73777;DHT22;62088;50.240;2.696;2022-12-24T00:45:24;10.40;85.10
73777;DHT22;62088;50.240;2.696;2022-12-24T00:47:53;10.40;85.10
73777;DHT22;62088;50.240;2.696;2022-12-24T00:50:20;10.40;85.10
73777;DHT22;62088;50.240;2.696;2022-12-24T00:52:47;10.40;85.10
73777;DHT22;62088;50.240;2.696;2022-12-24T00:55:15;10.40;85.10
73777;DHT22;62088;50.240;2.696;2022-12-24T00:57:42;10.40;85.10
73777;DHT22;62088;50.240;2.696;2022-12-24T01:00:09;10.40;85.10
73777;DHT22;62088;50.240;2.696;2022-12-24T01:02:37;10.40;85.20
73777;DHT22;62088;50.240;2.696;2022-12-24T01:05:04;10.40;85.40
73777;DHT22;62088;50.240;2.696;2022-12-24T01:07:40;10.40;85.50
73777;DHT22;62088;50.240;2.696;2022-12-24T01:10:08;10.40;85.50
73777;DHT22;62088;50.240;2.696;2022-12-24T01:12:35;10.40;85.70
73777;DHT22;62088;50.240;2.696;2022-12-24T01:15:03;10.40;85.70
73777;DHT22;62088;50.240;2.696;2022-12-24T01:17:31;10.40;85.80
73777;DHT22;62088;50.240;2.696;2022-12-24T01:19:58;10.40;85.90
73777;DHT22;62088;50.240;2.696;2022-12-24T01:22:26;10.40;86.00
73777;DHT22;62088;50.240;2.696;2022-12-24T01:24:53;10.40;86.00
73777;DHT22;62088;50.240;2.696;2022-12-24T01:27:20;10.40;86.00
73777;DHT22;62088;50.240;2.696;2022-12-24T01:29:47;10.40;86.10
73777;DHT22;62088;50.240;2.696;2022-12-24T01:32:14;10.50;86.10
73777;DHT22;62088;50.240;2.696;2022-12-24T01:34:41;10.50;86.10
73777;DHT22;62088;50.240;2.696;2022-12-24T01:37:08;10.50;86.00
73777;DHT22;62088;50.240;2.696;2022-12-24T01:39:35;10.50;86.00
73777;DHT22;62088;50.240;2.696;2022-12-24T01:42:17;10.50;86.00
73777;DHT22;62088;50.240;2.696;2022-12-24T01:50:44;10.50;86.00
73777;DHT22;62088;50.240;2.696;2022-12-24T01:53:11;10.50;86.00
73777;DHT22;62088;50.240;2.696;2022-12-24T01:55:40;10.50;86.00
73777;DHT22;62088;50.240;2.696;2022-12-24T01:58:08;10.50;86.00
73777;DHT22;62088;50.240;2.696;2022-12-24T02:00:36;10.50;86.00
73777;DHT22;62088;50.240;2.696;2022-12-24T02:03:04;10.50;86.00
73777;DHT22;62088;50.240;2.696;2022-12-24T02:05:57;10.50;86.00
73777;DHT22;62088;50.240;2.696;2022-12-24T02:08:25;10.50;86.00
73777;DHT22;62088;50.240;2.696;2022-12-24T02:11:16;10.50;86.00
73777;DHT22;62088;50.240;2.696;2022-12-24T02:13:54;10.50;86.00
73777;DHT22;62088;50.240;2.696;2022-12-24T02:16:37;10.60;86.00
73777;DHT22;62088;50.240;2.696;2022-12-24T02:22:16;10.50;85.90
73777;DHT22;62088;50.240;2.696;2022-12-24T02:27:51;10.50;85.90
73777;DHT22;62088;50.240;2.696;2022-12-24T02:33:12;10.50;85.90
73777;DHT22;62088;50.240;2.696;2022-12-24T02:35:56;10.40;85.90
73777;DHT22;62088;50.240;2.696;2022-12-24T02:38:26;10.50;85.90
73777;DHT22;62088;50.240;2.696;2022-12-24T02:41:19;10.40;85.90
73777;DHT22;62088;50.240;2.696;2022-12-24T02:43:45;10.40;85.90
73777;DHT22;62088;50.240;2.696;2022-12-24T02:46:17;10.40;85.90
73777;DHT22;62088;50.240;2.696;2022-12-24T02:48:47;10.40;85.90
73777;DHT22;62088;50.240;2.696;2022-12-24T02:51:15;10.40;85.90
73777;DHT22;62088;50.240;2.696;2022-12-24T02:53:42;10.40;85.90
73777;DHT22;62088;50.240;2.696;2022-12-24T03:01:51;10.30;86.00
73777;DHT22;62088;50.240;2.696;2022-12-24T03:07:30;10.30;86.00
73777;DHT22;62088;50.240;2.696;2022-12-24T03:10:05;10.30;86.00
73777;DHT22;62088;50.240;2.696;2022-12-24T03:12:38;10.20;86.00
73777;DHT22;62088;50.240;2.696;2022-12-24T03:15:10;10.20;86.00
73777;DHT22;62088;50.240;2.696;2022-12-24T03:17:38;10.20;86.00
73777;DHT22;62088;50.240;2.696;2022-12-24T03:20:08;10.20;86.00
73777;DHT22;62088;50.240;2.696;2022-12-24T03:22:36;10.20;86.00
73777;DHT22;62088;50.240;2.696;2022-12-24T03:25:05;10.20;86.00
73777;DHT22;62088;50.240;2.696;2022-12-24T03:27:32;10.20;86.00
73777;DHT22;62088;50.240;2.696;2022-12-24T03:30:03;10.20;86.10
73777;DHT22;62088;50.240;2.696;2022-12-24T03:32:34;10.20;86.10
73777;DHT22;62088;50.240;2.696;2022-12-24T03:35:01;10.20;86.20
73777;DHT22;62088;50.240;2.696;2022-12-24T03:37:28;10.20;86.20
73777;DHT22;62088;50.240;2.696;2022-12-24T03:39:55;10.20;86.20
73777;DHT22;62088;50.240;2.696;2022-12-24T03:42:22;10.20;86.30
73777;DHT22;62088;50.240;2.696;2022-12-24T03:44:49;10.20;86.30
73777;DHT22;62088;50.240;2.696;2022-12-24T03:47:16;10.20;86.30
73777;DHT22;62088;50.240;2.696;2022-12-24T03:49:43;10.20;86.20
73777;DHT22;62088;50.240;2.696;2022-12-24T03:52:10;10.20;86.20
73777;DHT22;62088;50.240;2.696;2022-12-24T03:54:37;10.20;86.20
73777;DHT22;62088;50.240;2.696;2022-12-24T03:57:04;10.20;86.20
73777;DHT22;62088;50.240;2.696;2022-12-24T03:59:31;10.20;86.20
73777;DHT22;62088;50.240;2.696;2022-12-24T04:01:59;10.20;86.20
73777;DHT22;62088;50.240;2.696;2022-12-24T04:04:26;10.20;86.20
73777;DHT22;62088;50.240;2.696;2022-12-24T04:06:53;10.20;86.20
73777;DHT22;62088;50.240;2.696;2022-12-24T04:09:20;10.20;86.20
73777;DHT22;62088;50.240;2.696;2022-12-24T04:11:47;10.20;86.20
73777;DHT22;62088;50.240;2.696;2022-12-24T04:14:14;10.20;86.20
73777;DHT22;62088;50.240;2.696;2022-12-24T04:16:41;10.20;86.20
73777;DHT22;62088;50.240;2.696;2022-12-24T04:19:08;10.20;86.10
73777;DHT22;62088;50.240;2.696;2022-12-24T04:21:35;10.20;86.10
73777;DHT22;62088;50.240;2.696;2022-12-24T04:24:02;10.20;86.10
73777;DHT22;62088;50.240;2.696;2022-12-24T04:26:29;10.20;86.10
73777;DHT22;62088;50.240;2.696;2022-12-24T04:28:56;10.20;86.00
73777;DHT22;62088;50.240;2.696;2022-12-24T04:31:23;10.10;86.00
73777;DHT22;62088;50.240;2.696;2022-12-24T04:33:51;10.20;86.00
73777;DHT22;62088;50.240;2.696;2022-12-24T04:36:19;10.10;86.00
73777;DHT22;62088;50.240;2.696;2022-12-24T04:38:47;10.10;86.00
73777;DHT22;62088;50.240;2.696;2022-12-24T04:41:16;10.10;86.00
73777;DHT22;62088;50.240;2.696;2022-12-24T04:43:51;10.10;86.00
73777;DHT22;62088;50.240;2.696;2022-12-24T04:46:21;10.00;86.00
73777;DHT22;62088;50.240;2.696;2022-12-24T04:48:50;10.00;86.00
73777;DHT22;62088;50.240;2.696;2022-12-24T04:51:18;10.00;86.10
73777;DHT22;62088;50.240;2.696;2022-12-24T04:53:46;10.00;86.10
73777;DHT22;62088;50.240;2.696;2022-12-24T04:56:17;10.00;86.20
73777;DHT22;62088;50.240;2.696;2022-12-24T04:58:44;10.00;86.20
73777;DHT22;62088;50.240;2.696;2022-12-24T05:01:15;10.00;86.20
73777;DHT22;62088;50.240;2.696;2022-12-24T05:03:43;10.00;86.20
73777;DHT22;62088;50.240;2.696;2022-12-24T05:06:13;10.00;86.20
73777;DHT22;62088;50.240;2.696;2022-12-24T05:08:41;9.90;86.20
73777;DHT22;62088;50.240;2.696;2022-12-24T05:11:09;9.90;86.20
73777;DHT22;62088;50.240;2.696;2022-12-24T05:13:41;10.00;86.30
73777;DHT22;62088;50.240;2.696;2022-12-24T05:16:15;10.00;86.30
73777;DHT22;62088;50.240;2.696;2022-12-24T05:18:42;10.00;86.40
73777;DHT22;62088;50.240;2.696;2022-12-24T05:21:14;10.00;86.40
73777;DHT22;62088;50.240;2.696;2022-12-24T05:23:42;10.00;86.50
73777;DHT22;62088;50.240;2.696;2022-12-24T05:26:36;10.00;86.50
73777;DHT22;62088;50.240;2.696;2022-12-24T05:29:06;10.00;86.50
73777;DHT22;62088;50.240;2.696;2022-12-24T05:31:33;10.00;86.50
73777;DHT22;62088;50.240;2.696;2022-12-24T05:34:02;10.00;86.40
73777;DHT22;62088;50.240;2.696;2022-12-24T05:36:29;10.00;86.40
73777;DHT22;62088;50.240;2.696;2022-12-24T05:38:57;10.00;86.40
73777;DHT22;62088;50.240;2.696;2022-12-24T05:41:24;10.00;86.40
73777;DHT22;62088;50.240;2.696;2022-12-24T05:43:51;10.00;86.40
73777;DHT22;62088;50.240;2.696;2022-12-24T05:46:20;10.00;86.40
73777;DHT22;62088;50.240;2.696;2022-12-24T05:48:48;10.00;86.40
73777;DHT22;62088;50.240;2.696;2022-12-24T05:51:18;10.00;86.40
73777;DHT22;62088;50.240;2.696;2022-12-24T05:53:46;10.00;86.40
73777;DHT22;62088;50.240;2.696;2022-12-24T05:56:16;10.00;86.40
73777;DHT22;62088;50.240;2.696;2022-12-24T05:58:43;10.00;86.40
73777;DHT22;62088;50.240;2.696;2022-12-24T06:01:11;10.00;86.40
73777;DHT22;62088;50.240;2.696;2022-12-24T06:03:38;10.00;86.40
73777;DHT22;62088;50.240;2.696;2022-12-24T06:06:08;10.00;86.40
73777;DHT22;62088;50.240;2.696;2022-12-24T06:08:37;10.00;86.40
73777;DHT22;62088;50.240;2.696;2022-12-24T06:11:08;10.00;86.40
73777;DHT22;62088;50.240;2.696;2022-12-24T06:13:35;10.00;86.40
73777;DHT22;62088;50.240;2.696;2022-12-24T06:16:04;10.00;86.40
73777;DHT22;62088;50.240;2.696;2022-12-24T06:18:33;10.00;86.40
73777;DHT22;62088;50.240;2.696;2022-12-24T06:21:01;10.00;86.40
73777;DHT22;62088;50.240;2.696;2022-12-24T06:23:30;10.00;86.50
73777;DHT22;62088;50.240;2.696;2022-12-24T06:25:59;10.00;86.50
73777;DHT22;62088;50.240;2.696;2022-12-24T06:28:32;10.00;86.50
73777;DHT22;62088;50.240;2.696;2022-12-24T06:31:00;10.00;86.50
73777;DHT22;62088;50.240;2.696;2022-12-24T06:33:30;10.00;86.50
73777;DHT22;62088;50.240;2.696;2022-12-24T06:35:57;10.00;86.60
73777;DHT22;62088;50.240;2.696;2022-12-24T06:38:25;9.90;86.50
73777;DHT22;62088;50.240;2.696;2022-12-24T06:40:52;10.00;86.50
73777;DHT22;62088;50.240;2.696;2022-12-24T06:43:21;10.00;86.50
73777;DHT22;62088;50.240;2.696;2022-12-24T06:45:49;10.00;86.50
73777;DHT22;62088;50.240;2.696;2022-12-24T06:48:16;10.00;86.50
73777;DHT22;62088;50.240;2.696;2022-12-24T06:50:43;10.00;86.50
73777;DHT22;62088;50.240;2.696;2022-12-24T06:53:10;9.90;86.50
73777;DHT22;62088;50.240;2.696;2022-12-24T06:55:37;9.90;86.50
73777;DHT22;62088;50.240;2.696;2022-12-24T06:58:04;9.90;86.50
73777;DHT22;62088;50.240;2.696;2022-12-24T07:00:31;9.90;86.50
73777;DHT22;62088;50.240;2.696;2022-12-24T07:02:58;9.90;86.50
73777;DHT22;62088;50.240;2.696;2022-12-24T07:05:26;9.90;86.50
73777;DHT22;62088;50.240;2.696;2022-12-24T07:07:53;9.90;86.40
73777;DHT22;62088;50.240;2.696;2022-12-24T07:10:20;9.90;86.40
73777;DHT22;62088;50.240;2.696;2022-12-24T07:12:47;9.90;86.40
73777;DHT22;62088;50.240;2.696;2022-12-24T07:15:15;9.90;86.40
73777;DHT22;62088;50.240;2.696;2022-12-24T07:17:42;9.80;86.40
73777;DHT22;62088;50.240;2.696;2022-12-24T07:20:12;9.80;86.30
73777;DHT22;62088;50.240;2.696;2022-12-24T07:22:41;9.80;86.30
73777;DHT22;62088;50.240;2.696;2022-12-24T07:25:09;9.80;86.30
73777;DHT22;62088;50.240;2.696;2022-12-24T07:27:37;9.70;86.30
73777;DHT22;62088;50.240;2.696;2022-12-24T07:30:05;9.70;86.30
73777;DHT22;62088;50.240;2.696;2022-12-24T07:32:32;9.70;86.30
73777;DHT22;62088;50.240;2.696;2022-12-24T07:34:59;9.70;86.30
73777;DHT22;62088;50.240;2.696;2022-12-24T07:37:26;9.70;86.40
73777;DHT22;62088;50.240;2.696;2022-12-24T07:39:53;9.60;86.40
73777;DHT22;62088;50.240;2.696;2022-12-24T07:42:20;9.60;86.40
73777;DHT22;62088;50.240;2.696;2022-12-24T07:44:49;9.60;86.40
73777;DHT22;62088;50.240;2.696;2022-12-24T07:47:16;9.60;86.40
73777;DHT22;62088;50.240;2.696;2022-12-24T07:49:43;9.60;86.50
73777;DHT22;62088;50.240;2.696;2022-12-24T07:52:10;9.60;86.50
73777;DHT22;62088;50.240;2.696;2022-12-24T07:54:37;9.50;86.50
73777;DHT22;62088;50.240;2.696;2022-12-24T07:57:04;9.50;86.60
73777;DHT22;62088;50.240;2.696;2022-12-24T07:59:31;9.50;86.60
73777;DHT22;62088;50.240;2.696;2022-12-24T08:01:58;9.50;86.70
73777;DHT22;62088;50.240;2.696;2022-12-24T08:04:26;9.50;86.70
73777;DHT22;62088;50.240;2.696;2022-12-24T08:06:53;9.50;86.80
73777;DHT22;62088;50.240;2.696;2022-12-24T08:09:20;9.60;86.80
73777;DHT22;62088;50.240;2.696;2022-12-24T08:11:47;9.50;86.80
73777;DHT22;62088;50.240;2.696;2022-12-24T08:14:18;9.50;86.80
73777;DHT22;62088;50.240;2.696;2022-12-24T08:16:45;9.50;86.80
73777;DHT22;62088;50.240;2.696;2022-12-24T08:19:13;9.50;86.80
73777;DHT22;62088;50.240;2.696;2022-12-24T08:21:39;9.50;86.80
73777;DHT22;62088;50.240;2.696;2022-12-24T08:24:07;9.50;86.80
73777;DHT22;62088;50.240;2.696;2022-12-24T08:26:34;9.50;86.80
73777;DHT22;62088;50.240;2.696;2022-12-24T08:29:02;9.50;86.80
73777;DHT22;62088;50.240;2.696;2022-12-24T08:31:29;9.40;86.80
73777;DHT22;62088;50.240;2.696;2022-12-24T08:33:56;9.40;86.90
73777;DHT22;62088;50.240;2.696;2022-12-24T08:36:23;9.50;86.90
73777;DHT22;62088;50.240;2.696;2022-12-24T08:38:50;9.50;86.90
73777;DHT22;62088;50.240;2.696;2022-12-24T08:41:17;9.40;86.90
73777;DHT22;62088;50.240;2.696;2022-12-24T08:43:44;9.40;86.90
73777;DHT22;62088;50.240;2.696;2022-12-24T08:46:11;9.40;86.90
73777;DHT22;62088;50.240;2.696;2022-12-24T08:48:38;9.50;86.90
73777;DHT22;62088;50.240;2.696;2022-12-24T08:51:09;9.50;87.00
73777;DHT22;62088;50.240;2.696;2022-12-24T08:53:37;9.40;87.00
73777;DHT22;62088;50.240;2.696;2022-12-24T08:56:07;9.50;87.00
73777;DHT22;62088;50.240;2.696;2022-12-24T08:58:34;9.50;87.10
73777;DHT22;62088;50.240;2.696;2022-12-24T09:01:12;9.50;87.10
73777;DHT22;62088;50.240;2.696;2022-12-24T09:03:40;9.50;87.10
73777;DHT22;62088;50.240;2.696;2022-12-24T09:06:08;9.50;87.20
73777;DHT22;62088;50.240;2.696;2022-12-24T09:08:35;9.50;87.20
73777;DHT22;62088;50.240;2.696;2022-12-24T09:11:12;9.50;87.20
73777;DHT22;62088;50.240;2.696;2022-12-24T09:13:41;9.50;87.20
73777;DHT22;62088;50.240;2.696;2022-12-24T09:16:10;9.50;87.20
73777;DHT22;62088;50.240;2.696;2022-12-24T09:18:38;9.50;87.20
73777;DHT22;62088;50.240;2.696;2022-12-24T09:21:12;9.50;87.30
73777;DHT22;62088;50.240;2.696;2022-12-24T09:23:42;9.50;87.30
73777;DHT22;62088;50.240;2.696;2022-12-24T09:26:13;9.60;87.30
73777;DHT22;62088;50.240;2.696;2022-12-24T09:28:41;9.60;87.30
73777;DHT22;62088;50.240;2.696;2022-12-24T09:31:09;9.60;87.30
73777;DHT22;62088;50.240;2.696;2022-12-24T09:33:38;9.60;87.30
73777;DHT22;62088;50.240;2.696;2022-12-24T09:36:05;9.60;87.30
73777;DHT22;62088;50.240;2.696;2022-12-24T09:38:33;9.60;87.30
73777;DHT22;62088;50.240;2.696;2022-12-24T09:41:01;9.60;87.30
73777;DHT22;62088;50.240;2.696;2022-12-24T09:43:35;9.60;87.30
73777;DHT22;62088;50.240;2.696;2022-12-24T09:46:15;9.60;87.40
73777;DHT22;62088;50.240;2.696;2022-12-24T09:48:47;9.70;87.40
73777;DHT22;62088;50.240;2.696;2022-12-24T09:51:33;9.70;87.50
73777;DHT22;62088;50.240;2.696;2022-12-24T09:56:37;9.70;87.50
73777;DHT22;62088;50.240;2.696;2022-12-24T09:59:20;9.80;87.50
73777;DHT22;62088;50.240;2.696;2022-12-24T10:01:49;9.80;87.50
73777;DHT22;62088;50.240;2.696;2022-12-24T10:04:21;9.90;87.60
73777;DHT22;62088;50.240;2.696;2022-12-24T10:07:02;9.90;87.60
73777;DHT22;62088;50.240;2.696;2022-12-24T10:12:28;9.90;87.80
73777;DHT22;62088;50.240;2.696;2022-12-24T10:17:46;10.10;87.80
73777;DHT22;62088;50.240;2.696;2022-12-24T10:29:05;10.20;87.90
73777;DHT22;62088;50.240;2.696;2022-12-24T10:31:38;10.30;87.90
73777;DHT22;62088;50.240;2.696;2022-12-24T10:34:12;10.30;87.90
73777;DHT22;62088;50.240;2.696;2022-12-24T10:36:42;10.40;87.90
73777;DHT22;62088;50.240;2.696;2022-12-24T10:39:20;10.40;87.90
73777;DHT22;62088;50.240;2.696;2022-12-24T10:41:51;10.50;87.90
73777;DHT22;62088;50.240;2.696;2022-12-24T10:44:21;10.50;87.90
73777;DHT22;62088;50.240;2.696;2022-12-24T10:46:49;10.60;87.80
73777;DHT22;62088;50.240;2.696;2022-12-24T10:49:36;10.60;87.70
73777;DHT22;62088;50.240;2.696;2022-12-24T10:52:13;10.70;87.50
73777;DHT22;62088;50.240;2.696;2022-12-24T10:57:38;10.80;87.40
73777;DHT22;62088;50.240;2.696;2022-12-24T11:00:21;10.80;87.40
73777;DHT22;62088;50.240;2.696;2022-12-24T11:02:50;10.80;87.50
73777;DHT22;62088;50.240;2.696;2022-12-24T11:05:33;10.90;87.40
73777;DHT22;62088;50.240;2.696;2022-12-24T11:08:15;10.90;87.40
73777;DHT22;62088;50.240;2.696;2022-12-24T11:11:04;10.90;87.40
73777;DHT22;62088;50.240;2.696;2022-12-24T11:13:42;11.00;87.40
73777;DHT22;62088;50.240;2.696;2022-12-24T11:16:17;11.00;87.40
73777;DHT22;62088;50.240;2.696;2022-12-24T11:19:02;11.10;87.30
73777;DHT22;62088;50.240;2.696;2022-12-24T11:21:31;11.10;87.20
73777;DHT22;62088;50.240;2.696;2022-12-24T11:24:24;11.20;87.10
73777;DHT22;62088;50.240;2.696;2022-12-24T11:26:52;11.20;87.00
73777;DHT22;62088;50.240;2.696;2022-12-24T11:29:24;11.30;87.00
73777;DHT22;62088;50.240;2.696;2022-12-24T11:31:52;11.30;87.00
73777;DHT22;62088;50.240;2.696;2022-12-24T11:34:35;11.30;86.90
73777;DHT22;62088;50.240;2.696;2022-12-24T11:37:22;11.30;86.90
73777;DHT22;62088;50.240;2.696;2022-12-24T11:39:52;11.40;86.90
73777;DHT22;62088;50.240;2.696;2022-12-24T11:44:54;11.50;86.90
73777;DHT22;62088;50.240;2.696;2022-12-24T11:47:37;11.60;86.90
73777;DHT22;62088;50.240;2.696;2022-12-24T11:53:16;11.70;86.70
73777;DHT22;62088;50.240;2.696;2022-12-24T11:55:48;11.80;86.70
73777;DHT22;62088;50.240;2.696;2022-12-24T11:58:39;11.90;86.50
73777;DHT22;62088;50.240;2.696;2022-12-24T12:04:32;11.90;86.20
73777;DHT22;62088;50.240;2.696;2022-12-24T12:07:03;11.90;86.00
73777;DHT22;62088;50.240;2.696;2022-12-24T12:09:43;12.00;85.80
73777;DHT22;62088;50.240;2.696;2022-12-24T12:12:29;12.00;85.60
73777;DHT22;62088;50.240;2.696;2022-12-24T12:15:21;12.00;85.50
73777;DHT22;62088;50.240;2.696;2022-12-24T12:18:06;12.00;85.40
73777;DHT22;62088;50.240;2.696;2022-12-24T12:20:37;12.00;85.20
73777;DHT22;62088;50.240;2.696;2022-12-24T12:28:34;12.00;84.80
73777;DHT22;62088;50.240;2.696;2022-12-24T12:31:25;12.00;84.70
73777;DHT22;62088;50.240;2.696;2022-12-24T12:36:31;12.00;84.60
73777;DHT22;62088;50.240;2.696;2022-12-24T12:38:59;12.00;84.70
73777;DHT22;62088;50.240;2.696;2022-12-24T12:50:07;12.10;84.70
73777;DHT22;62088;50.240;2.696;2022-12-24T12:52:49;12.10;84.60
73777;DHT22;62088;50.240;2.696;2022-12-24T12:58:01;12.10;84.50
73777;DHT22;62088;50.240;2.696;2022-12-24T13:00:34;12.20;84.40
73777;DHT22;62088;50.240;2.696;2022-12-24T13:03:37;12.10;84.40
73777;DHT22;62088;50.240;2.696;2022-12-24T13:12:17;12.00;84.40
73777;DHT22;62088;50.240;2.696;2022-12-24T13:20:32;12.10;84.60
73777;DHT22;62088;50.240;2.696;2022-12-24T13:23:11;12.10;84.60
73777;DHT22;62088;50.240;2.696;2022-12-24T13:25:42;12.10;84.50
73777;DHT22;62088;50.240;2.696;2022-12-24T13:30:43;12.10;84.30
73777;DHT22;62088;50.240;2.696;2022-12-24T13:36:11;12.10;84.30
73777;DHT22;62088;50.240;2.696;2022-12-24T13:38:54;12.10;84.30
73777;DHT22;62088;50.240;2.696;2022-12-24T13:49:43;12.20;84.40
73777;DHT22;62088;50.240;2.696;2022-12-24T13:57:31;12.20;84.20
73777;DHT22;62088;50.240;2.696;2022-12-24T14:05:23;12.10;84.00
73777;DHT22;62088;50.240;2.696;2022-12-24T14:07:52;12.10;84.00
73777;DHT22;62088;50.240;2.696;2022-12-24T14:10:30;12.00;84.00
73777;DHT22;62088;50.240;2.696;2022-12-24T14:12:58;12.00;84.10
73777;DHT22;62088;50.240;2.696;2022-12-24T14:18:20;11.90;84.20
73777;DHT22;62088;50.240;2.696;2022-12-24T14:20:50;12.00;84.30
73777;DHT22;62088;50.240;2.696;2022-12-24T14:23:32;11.90;84.30
73777;DHT22;62088;50.240;2.696;2022-12-24T14:26:02;12.00;84.40
73777;DHT22;62088;50.240;2.696;2022-12-24T14:28:35;12.00;84.40
73777;DHT22;62088;50.240;2.696;2022-12-24T14:31:14;12.00;84.40
73777;DHT22;62088;50.240;2.696;2022-12-24T14:33:42;11.90;84.40
73777;DHT22;62088;50.240;2.696;2022-12-24T14:36:11;11.90;84.30
73777;DHT22;62088;50.240;2.696;2022-12-24T14:38:42;11.90;84.30
73777;DHT22;62088;50.240;2.696;2022-12-24T14:41:39;11.90;84.20
73777;DHT22;62088;50.240;2.696;2022-12-24T14:44:45;11.90;84.20
73777;DHT22;62088;50.240;2.696;2022-12-24T14:55:40;11.80;84.20
73777;DHT22;62088;50.240;2.696;2022-12-24T14:58:47;11.70;84.20
73777;DHT22;62088;50.240;2.696;2022-12-24T15:01:26;11.70;84.00
73777;DHT22;62088;50.240;2.696;2022-12-24T15:09:21;11.50;84.00
73777;DHT22;62088;50.240;2.696;2022-12-24T15:11:51;11.50;84.00
73777;DHT22;62088;50.240;2.696;2022-12-24T15:14:20;11.50;84.00
73777;DHT22;62088;50.240;2.696;2022-12-24T15:17:00;11.40;84.00
73777;DHT22;62088;50.240;2.696;2022-12-24T15:19:35;11.40;84.10
73777;DHT22;62088;50.240;2.696;2022-12-24T15:22:15;11.40;84.10
73777;DHT22;62088;50.240;2.696;2022-12-24T15:24:47;11.30;84.20
73777;DHT22;62088;50.240;2.696;2022-12-24T15:27:19;11.30;84.30
73777;DHT22;62088;50.240;2.696;2022-12-24T15:29:49;11.30;84.30
73777;DHT22;62088;50.240;2.696;2022-12-24T15:32:19;11.20;84.40
73777;DHT22;62088;50.240;2.696;2022-12-24T15:34:54;11.20;84.50
73777;DHT22;62088;50.240;2.696;2022-12-24T15:37:27;11.20;84.60
73777;DHT22;62088;50.240;2.696;2022-12-24T15:40:06;11.20;84.70
73777;DHT22;62088;50.240;2.696;2022-12-24T15:42:34;11.20;84.70
73777;DHT22;62088;50.240;2.696;2022-12-24T15:45:04;11.20;84.80
73777;DHT22;62088;50.240;2.696;2022-12-24T15:47:43;11.20;84.80
73777;DHT22;62088;50.240;2.696;2022-12-24T15:52:47;11.20;85.00
73777;DHT22;62088;50.240;2.696;2022-12-24T15:58:23;11.20;85.10
73777;DHT22;62088;50.240;2.696;2022-12-24T16:03:55;11.10;85.30
73777;DHT22;62088;50.240;2.696;2022-12-24T16:06:23;11.10;85.40
73777;DHT22;62088;50.240;2.696;2022-12-24T16:08:50;11.10;85.40
73777;DHT22;62088;50.240;2.696;2022-12-24T16:11:25;11.10;85.50
73777;DHT22;62088;50.240;2.696;2022-12-24T16:14:10;11.10;85.60
73777;DHT22;62088;50.240;2.696;2022-12-24T16:16:41;11.00;85.60
73777;DHT22;62088;50.240;2.696;2022-12-24T16:21:53;11.00;85.70
73777;DHT22;62088;50.240;2.696;2022-12-24T16:24:23;11.00;85.70
73777;DHT22;62088;50.240;2.696;2022-12-24T16:26:51;11.00;85.70
73777;DHT22;62088;50.240;2.696;2022-12-24T16:29:19;11.00;85.70
73777;DHT22;62088;50.240;2.696;2022-12-24T16:31:51;11.00;85.80
73777;DHT22;62088;50.240;2.696;2022-12-24T16:34:21;11.00;85.80
73777;DHT22;62088;50.240;2.696;2022-12-24T16:49:52;11.00;85.80
73777;DHT22;62088;50.240;2.696;2022-12-24T16:52:24;11.20;85.50
73777;DHT22;62088;50.240;2.696;2022-12-24T16:54:55;11.20;85.50
73777;DHT22;62088;50.240;2.696;2022-12-24T16:57:23;11.10;85.50
73777;DHT22;62088;50.240;2.696;2022-12-24T16:59:50;11.10;85.50
73777;DHT22;62088;50.240;2.696;2022-12-24T17:02:20;11.10;85.50
73777;DHT22;62088;50.240;2.696;2022-12-24T17:04:48;11.10;85.50
73777;DHT22;62088;50.240;2.696;2022-12-24T17:07:17;11.10;85.50
73777;DHT22;62088;50.240;2.696;2022-12-24T17:09:44;11.00;85.60
73777;DHT22;62088;50.240;2.696;2022-12-24T17:12:12;11.00;85.60
73777;DHT22;62088;50.240;2.696;2022-12-24T17:14:40;11.00;85.60
73777;DHT22;62088;50.240;2.696;2022-12-24T17:17:25;11.00;85.70
73777;DHT22;62088;50.240;2.696;2022-12-24T17:19:54;11.00;85.70
73777;DHT22;62088;50.240;2.696;2022-12-24T17:22:21;10.90;85.80
73777;DHT22;62088;50.240;2.696;2022-12-24T17:24:49;10.90;85.90
73777;DHT22;62088;50.240;2.696;2022-12-24T17:27:16;10.90;85.90
73777;DHT22;62088;50.240;2.696;2022-12-24T17:29:43;10.90;86.00
73777;DHT22;62088;50.240;2.696;2022-12-24T17:32:10;10.90;86.00
73777;DHT22;62088;50.240;2.696;2022-12-24T17:34:37;10.90;86.10
73777;DHT22;62088;50.240;2.696;2022-12-24T17:37:04;10.90;86.20
73777;DHT22;62088;50.240;2.696;2022-12-24T17:39:31;10.80;86.20
73777;DHT22;62088;50.240;2.696;2022-12-24T17:41:58;10.80;86.20
73777;DHT22;62088;50.240;2.696;2022-12-24T17:44:26;10.80;86.30
73777;DHT22;62088;50.240;2.696;2022-12-24T17:46:53;10.80;86.40
73777;DHT22;62088;50.240;2.696;2022-12-24T17:49:20;10.80;86.50
73777;DHT22;62088;50.240;2.696;2022-12-24T17:51:47;10.80;86.50
73777;DHT22;62088;50.240;2.696;2022-12-24T17:54:14;10.80;86.60
73777;DHT22;62088;50.240;2.696;2022-12-24T17:56:41;10.70;86.60
73777;DHT22;62088;50.240;2.696;2022-12-24T17:59:08;10.80;86.70
73777;DHT22;62088;50.240;2.696;2022-12-24T18:01:35;10.70;86.70
73777;DHT22;62088;50.240;2.696;2022-12-24T18:04:02;10.70;86.80
73777;DHT22;62088;50.240;2.696;2022-12-24T18:06:30;10.70;86.80
73777;DHT22;62088;50.240;2.696;2022-12-24T18:08:57;10.70;86.80
73777;DHT22;62088;50.240;2.696;2022-12-24T18:11:27;10.70;86.80
73777;DHT22;62088;50.240;2.696;2022-12-24T18:13:55;10.70;86.90
73777;DHT22;62088;50.240;2.696;2022-12-24T18:16:25;10.70;86.90
73777;DHT22;62088;50.240;2.696;2022-12-24T18:18:53;10.70;87.00
73777;DHT22;62088;50.240;2.696;2022-12-24T18:21:22;10.60;87.00
73777;DHT22;62088;50.240;2.696;2022-12-24T18:23:50;10.60;87.00
73777;DHT22;62088;50.240;2.696;2022-12-24T18:26:18;10.60;87.00